Pecos National Monument, New Mexico
Current Conditions -  °F | °C
As of 5:53 PM on Monday 22 Dec 2014 (Local Time) from KLVS Reporting Station
Moderate Snow Moderate Snow  
Wind Chill: 14°   Ceiling: 700
Heat Index: 26°   Visibility: 0.5mi
Dew Point: 25°   Wind: 15mph
Humidity: 96%   Direction: 40°NE
Pressure: 29.74"   Gusts: NA
Location:  35.582°N, 105.558°W
Report Text: KLVS 230053Z AUTO 04013KT 1/2SM SN FZFG VV007 M03/M04 A2974 RMK AO2 SLP051 P0002 T10331039
Loading
Personal Weather Stations






























Interactive Weather Map New forecast layout! Learn more

10-Day Weather Forecast

Advertisements
Track Severe Weather on mobile